Terminal Aerodrome Forecast
Issued by NWS

Home | Current Version | Previous Version | Text Only | Print | Product List | Glossary On
Versions: 1 2 3 4 5 6 7 8 9 10 11 12 13 14 15
000
FTUS43 KDDC 020520
TAFGCK
TAF
KGCK 020520Z 0206/0306 31004KT P6SM OVC060
     FM020900 33007KT P6SM SCT050 BKN200
     FM021500 33010G20KT P6SM SCT050
     FM030000 VRB06KT P6SM SCT050 SCT200=

USA.gov is the U.S. government's official web portal to all federal, state and local government web resources and services.